sensor_id;sensor_type;location;lat;lon;timestamp;P1;durP1;ratioP1;P2;durP2;ratioP2
69463;SDS011;56665;41.106;16.688;2023-11-22T00:00:58;16.85;;;6.95;;
69463;SDS011;56665;41.106;16.688;2023-11-22T00:04:02;11.67;;;6.00;;
69463;SDS011;56665;41.106;16.688;2023-11-22T00:07:05;11.05;;;4.78;;
69463;SDS011;56665;41.106;16.688;2023-11-22T00:10:10;11.77;;;4.90;;
69463;SDS011;56665;41.106;16.688;2023-11-22T00:13:14;12.02;;;5.20;;
69463;SDS011;56665;41.106;16.688;2023-11-22T00:16:17;14.15;;;6.30;;
69463;SDS011;56665;41.106;16.688;2023-11-22T00:19:21;16.60;;;5.60;;
69463;SDS011;56665;41.106;16.688;2023-11-22T00:22:26;12.60;;;4.57;;
69463;SDS011;56665;41.106;16.688;2023-11-22T00:25:30;6.38;;;3.60;;
69463;SDS011;56665;41.106;16.688;2023-11-22T00:28:34;5.70;;;2.90;;
69463;SDS011;56665;41.106;16.688;2023-11-22T00:31:38;6.45;;;2.60;;
69463;SDS011;56665;41.106;16.688;2023-11-22T00:34:43;4.73;;;3.00;;
69463;SDS011;56665;41.106;16.688;2023-11-22T00:37:47;4.13;;;2.50;;
69463;SDS011;56665;41.106;16.688;2023-11-22T00:40:51;4.93;;;2.70;;
69463;SDS011;56665;41.106;16.688;2023-11-22T00:43:55;5.35;;;2.85;;
69463;SDS011;56665;41.106;16.688;2023-11-22T00:46:59;7.35;;;2.78;;
69463;SDS011;56665;41.106;16.688;2023-11-22T00:50:03;7.97;;;3.00;;
69463;SDS011;56665;41.106;16.688;2023-11-22T00:53:07;5.20;;;2.72;;
69463;SDS011;56665;41.106;16.688;2023-11-22T00:56:12;7.90;;;2.97;;
69463;SDS011;56665;41.106;16.688;2023-11-22T00:59:16;5.82;;;2.85;;
69463;SDS011;56665;41.106;16.688;2023-11-22T01:02:20;7.55;;;3.20;;
69463;SDS011;56665;41.106;16.688;2023-11-22T01:05:24;5.70;;;2.73;;
69463;SDS011;56665;41.106;16.688;2023-11-22T01:08:28;7.05;;;2.92;;
69463;SDS011;56665;41.106;16.688;2023-11-22T01:11:32;6.45;;;3.10;;
69463;SDS011;56665;41.106;16.688;2023-11-22T01:14:36;7.15;;;3.40;;
69463;SDS011;56665;41.106;16.688;2023-11-22T01:17:40;8.00;;;3.88;;
69463;SDS011;56665;41.106;16.688;2023-11-22T01:20:44;9.60;;;3.57;;
69463;SDS011;56665;41.106;16.688;2023-11-22T01:23:48;9.40;;;3.90;;
69463;SDS011;56665;41.106;16.688;2023-11-22T01:26:52;7.70;;;3.65;;
69463;SDS011;56665;41.106;16.688;2023-11-22T01:29:56;8.30;;;3.92;;
69463;SDS011;56665;41.106;16.688;2023-11-22T01:33:01;9.20;;;4.30;;
69463;SDS011;56665;41.106;16.688;2023-11-22T01:36:04;7.43;;;4.10;;
69463;SDS011;56665;41.106;16.688;2023-11-22T01:39:08;12.95;;;4.05;;
69463;SDS011;56665;41.106;16.688;2023-11-22T01:42:12;7.63;;;4.05;;
69463;SDS011;56665;41.106;16.688;2023-11-22T01:45:16;8.23;;;3.33;;
69463;SDS011;56665;41.106;16.688;2023-11-22T01:48:19;6.53;;;3.05;;
69463;SDS011;56665;41.106;16.688;2023-11-22T01:51:24;6.27;;;2.90;;
69463;SDS011;56665;41.106;16.688;2023-11-22T01:54:29;5.47;;;2.80;;
69463;SDS011;56665;41.106;16.688;2023-11-22T01:57:35;6.05;;;2.95;;
69463;SDS011;56665;41.106;16.688;2023-11-22T02:00:45;6.13;;;3.03;;
69463;SDS011;56665;41.106;16.688;2023-11-22T02:03:53;7.18;;;3.30;;
69463;SDS011;56665;41.106;16.688;2023-11-22T02:06:56;6.30;;;3.00;;
69463;SDS011;56665;41.106;16.688;2023-11-22T02:10:00;6.68;;;2.75;;
69463;SDS011;56665;41.106;16.688;2023-11-22T02:13:09;8.98;;;3.25;;
69463;SDS011;56665;41.106;16.688;2023-11-22T02:16:13;5.72;;;3.00;;
69463;SDS011;56665;41.106;16.688;2023-11-22T02:19:17;7.25;;;2.90;;
69463;SDS011;56665;41.106;16.688;2023-11-22T02:22:21;9.90;;;3.20;;
69463;SDS011;56665;41.106;16.688;2023-11-22T02:25:25;6.85;;;2.97;;
69463;SDS011;56665;41.106;16.688;2023-11-22T02:28:28;5.93;;;2.90;;
69463;SDS011;56665;41.106;16.688;2023-11-22T02:31:33;7.90;;;3.30;;
69463;SDS011;56665;41.106;16.688;2023-11-22T02:34:37;5.60;;;3.00;;
69463;SDS011;56665;41.106;16.688;2023-11-22T02:37:43;7.03;;;3.03;;
69463;SDS011;56665;41.106;16.688;2023-11-22T02:40:49;7.53;;;3.00;;
69463;SDS011;56665;41.106;16.688;2023-11-22T02:43:53;6.28;;;2.83;;
69463;SDS011;56665;41.106;16.688;2023-11-22T02:46:57;6.95;;;2.78;;
69463;SDS011;56665;41.106;16.688;2023-11-22T02:50:03;6.32;;;2.80;;
69463;SDS011;56665;41.106;16.688;2023-11-22T02:53:08;8.70;;;3.40;;
69463;SDS011;56665;41.106;16.688;2023-11-22T02:56:12;5.68;;;2.95;;
69463;SDS011;56665;41.106;16.688;2023-11-22T02:59:16;7.97;;;3.25;;
69463;SDS011;56665;41.106;16.688;2023-11-22T03:02:20;5.90;;;3.00;;
69463;SDS011;56665;41.106;16.688;2023-11-22T03:05:23;5.78;;;2.95;;
69463;SDS011;56665;41.106;16.688;2023-11-22T03:08:27;7.30;;;2.70;;
69463;SDS011;56665;41.106;16.688;2023-11-22T03:11:31;11.57;;;8.30;;
69463;SDS011;56665;41.106;16.688;2023-11-22T03:14:35;21.63;;;16.20;;
69463;SDS011;56665;41.106;16.688;2023-11-22T03:17:39;13.90;;;9.40;;
69463;SDS011;56665;41.106;16.688;2023-11-22T03:20:43;12.38;;;6.40;;
69463;SDS011;56665;41.106;16.688;2023-11-22T03:23:47;6.67;;;3.97;;
69463;SDS011;56665;41.106;16.688;2023-11-22T03:26:50;6.85;;;3.55;;
69463;SDS011;56665;41.106;16.688;2023-11-22T03:29:56;11.43;;;5.43;;
69463;SDS011;56665;41.106;16.688;2023-11-22T03:33:00;8.60;;;4.88;;
69463;SDS011;56665;41.106;16.688;2023-11-22T03:36:03;10.60;;;5.28;;
69463;SDS011;56665;41.106;16.688;2023-11-22T03:39:08;11.73;;;5.37;;
69463;SDS011;56665;41.106;16.688;2023-11-22T03:42:14;11.88;;;5.53;;
69463;SDS011;56665;41.106;16.688;2023-11-22T03:45:21;13.82;;;5.80;;
69463;SDS011;56665;41.106;16.688;2023-11-22T03:48:25;12.30;;;5.10;;
69463;SDS011;56665;41.106;16.688;2023-11-22T03:51:29;10.90;;;5.47;;
69463;SDS011;56665;41.106;16.688;2023-11-22T03:54:33;11.33;;;5.00;;
69463;SDS011;56665;41.106;16.688;2023-11-22T03:57:37;10.02;;;5.03;;
69463;SDS011;56665;41.106;16.688;2023-11-22T04:00:40;11.23;;;5.78;;
69463;SDS011;56665;41.106;16.688;2023-11-22T04:03:44;13.90;;;5.85;;
69463;SDS011;56665;41.106;16.688;2023-11-22T04:06:48;14.15;;;6.20;;
69463;SDS011;56665;41.106;16.688;2023-11-22T04:09:51;14.00;;;6.93;;
69463;SDS011;56665;41.106;16.688;2023-11-22T04:12:55;14.68;;;6.90;;
69463;SDS011;56665;41.106;16.688;2023-11-22T04:15:59;18.60;;;7.50;;
69463;SDS011;56665;41.106;16.688;2023-11-22T04:19:02;20.70;;;7.72;;
69463;SDS011;56665;41.106;16.688;2023-11-22T04:22:06;13.65;;;7.15;;
69463;SDS011;56665;41.106;16.688;2023-11-22T04:25:11;14.43;;;7.00;;
69463;SDS011;56665;41.106;16.688;2023-11-22T04:28:19;14.40;;;6.70;;
69463;SDS011;56665;41.106;16.688;2023-11-22T04:31:22;16.17;;;6.45;;
69463;SDS011;56665;41.106;16.688;2023-11-22T04:34:26;22.00;;;8.40;;
69463;SDS011;56665;41.106;16.688;2023-11-22T04:37:30;17.08;;;7.60;;
69463;SDS011;56665;41.106;16.688;2023-11-22T04:40:35;15.00;;;7.77;;
69463;SDS011;56665;41.106;16.688;2023-11-22T04:43:39;14.00;;;6.63;;
69463;SDS011;56665;41.106;16.688;2023-11-22T04:46:43;13.43;;;6.60;;
69463;SDS011;56665;41.106;16.688;2023-11-22T04:49:46;13.95;;;7.13;;
69463;SDS011;56665;41.106;16.688;2023-11-22T04:52:50;16.60;;;8.00;;
69463;SDS011;56665;41.106;16.688;2023-11-22T04:55:54;12.70;;;6.90;;
69463;SDS011;56665;41.106;16.688;2023-11-22T04:58:58;13.68;;;6.88;;
69463;SDS011;56665;41.106;16.688;2023-11-22T05:02:02;14.05;;;6.45;;
69463;SDS011;56665;41.106;16.688;2023-11-22T05:05:09;14.50;;;6.88;;
69463;SDS011;56665;41.106;16.688;2023-11-22T05:08:15;13.30;;;6.03;;
69463;SDS011;56665;41.106;16.688;2023-11-22T05:11:19;11.13;;;6.23;;
69463;SDS011;56665;41.106;16.688;2023-11-22T05:14:23;13.75;;;6.05;;
69463;SDS011;56665;41.106;16.688;2023-11-22T05:17:27;11.27;;;5.70;;
69463;SDS011;56665;41.106;16.688;2023-11-22T05:20:31;14.80;;;5.68;;
69463;SDS011;56665;41.106;16.688;2023-11-22T05:23:36;12.48;;;6.35;;
69463;SDS011;56665;41.106;16.688;2023-11-22T05:26:40;14.73;;;6.83;;
69463;SDS011;56665;41.106;16.688;2023-11-22T05:29:44;14.10;;;7.57;;
69463;SDS011;56665;41.106;16.688;2023-11-22T05:32:48;15.18;;;7.70;;
69463;SDS011;56665;41.106;16.688;2023-11-22T05:35:53;15.68;;;8.25;;
69463;SDS011;56665;41.106;16.688;2023-11-22T05:38:57;16.48;;;8.15;;
69463;SDS011;56665;41.106;16.688;2023-11-22T05:42:02;16.10;;;7.73;;
69463;SDS011;56665;41.106;16.688;2023-11-22T05:45:06;15.02;;;7.55;;
69463;SDS011;56665;41.106;16.688;2023-11-22T05:48:11;13.00;;;7.72;;
69463;SDS011;56665;41.106;16.688;2023-11-22T05:51:15;16.02;;;7.65;;
69463;SDS011;56665;41.106;16.688;2023-11-22T05:54:19;13.60;;;7.57;;
69463;SDS011;56665;41.106;16.688;2023-11-22T05:57:23;15.33;;;8.43;;
69463;SDS011;56665;41.106;16.688;2023-11-22T06:00:27;15.10;;;8.35;;
69463;SDS011;56665;41.106;16.688;2023-11-22T06:03:30;14.20;;;8.30;;
69463;SDS011;56665;41.106;16.688;2023-11-22T06:06:34;12.65;;;7.03;;
69463;SDS011;56665;41.106;16.688;2023-11-22T06:09:38;12.07;;;6.78;;
69463;SDS011;56665;41.106;16.688;2023-11-22T06:12:41;12.00;;;6.57;;
69463;SDS011;56665;41.106;16.688;2023-11-22T06:15:46;9.93;;;6.47;;
69463;SDS011;56665;41.106;16.688;2023-11-22T06:18:49;14.35;;;7.13;;
69463;SDS011;56665;41.106;16.688;2023-11-22T06:21:54;11.70;;;7.05;;
69463;SDS011;56665;41.106;16.688;2023-11-22T06:24:59;13.25;;;7.57;;
69463;SDS011;56665;41.106;16.688;2023-11-22T06:28:02;11.53;;;6.60;;
69463;SDS011;56665;41.106;16.688;2023-11-22T06:31:06;10.95;;;6.70;;
69463;SDS011;56665;41.106;16.688;2023-11-22T06:34:11;11.02;;;6.47;;
69463;SDS011;56665;41.106;16.688;2023-11-22T06:37:15;11.90;;;6.45;;
69463;SDS011;56665;41.106;16.688;2023-11-22T06:40:19;11.32;;;6.53;;
69463;SDS011;56665;41.106;16.688;2023-11-22T06:43:26;14.37;;;6.27;;
69463;SDS011;56665;41.106;16.688;2023-11-22T06:46:30;10.75;;;6.68;;
69463;SDS011;56665;41.106;16.688;2023-11-22T06:49:34;10.82;;;6.78;;
69463;SDS011;56665;41.106;16.688;2023-11-22T06:52:38;11.88;;;6.20;;
69463;SDS011;56665;41.106;16.688;2023-11-22T06:55:42;11.05;;;6.22;;
69463;SDS011;56665;41.106;16.688;2023-11-22T06:58:46;12.27;;;6.57;;
69463;SDS011;56665;41.106;16.688;2023-11-22T07:01:49;9.57;;;6.60;;
69463;SDS011;56665;41.106;16.688;2023-11-22T07:04:53;12.55;;;6.43;;
69463;SDS011;56665;41.106;16.688;2023-11-22T07:07:57;10.45;;;6.45;;
69463;SDS011;56665;41.106;16.688;2023-11-22T07:11:01;14.20;;;7.72;;
69463;SDS011;56665;41.106;16.688;2023-11-22T07:14:06;12.10;;;9.00;;
69463;SDS011;56665;41.106;16.688;2023-11-22T07:17:10;14.15;;;9.52;;
69463;SDS011;56665;41.106;16.688;2023-11-22T07:20:14;15.00;;;9.35;;
69463;SDS011;56665;41.106;16.688;2023-11-22T07:23:20;18.33;;;10.35;;
69463;SDS011;56665;41.106;16.688;2023-11-22T07:26:28;15.23;;;10.35;;
69463;SDS011;56665;41.106;16.688;2023-11-22T07:29:33;16.27;;;9.10;;
69463;SDS011;56665;41.106;16.688;2023-11-22T07:32:37;15.05;;;8.55;;
69463;SDS011;56665;41.106;16.688;2023-11-22T07:35:40;14.45;;;8.55;;
69463;SDS011;56665;41.106;16.688;2023-11-22T07:38:44;11.60;;;7.70;;
69463;SDS011;56665;41.106;16.688;2023-11-22T07:41:48;12.05;;;7.68;;
69463;SDS011;56665;41.106;16.688;2023-11-22T07:44:52;14.67;;;8.57;;
69463;SDS011;56665;41.106;16.688;2023-11-22T07:47:59;16.55;;;8.60;;
69463;SDS011;56665;41.106;16.688;2023-11-22T07:51:03;17.17;;;7.88;;
69463;SDS011;56665;41.106;16.688;2023-11-22T07:54:08;13.50;;;6.93;;
69463;SDS011;56665;41.106;16.688;2023-11-22T07:57:13;16.90;;;8.13;;
69463;SDS011;56665;41.106;16.688;2023-11-22T08:00:17;13.80;;;6.73;;
69463;SDS011;56665;41.106;16.688;2023-11-22T08:03:22;14.38;;;7.28;;
69463;SDS011;56665;41.106;16.688;2023-11-22T08:06:28;13.13;;;6.57;;
69463;SDS011;56665;41.106;16.688;2023-11-22T08:09:32;11.23;;;6.22;;
69463;SDS011;56665;41.106;16.688;2023-11-22T08:12:36;9.07;;;5.97;;
69463;SDS011;56665;41.106;16.688;2023-11-22T08:15:42;9.87;;;5.83;;
69463;SDS011;56665;41.106;16.688;2023-11-22T08:18:46;9.82;;;5.00;;
69463;SDS011;56665;41.106;16.688;2023-11-22T08:21:51;11.23;;;5.43;;
69463;SDS011;56665;41.106;16.688;2023-11-22T08:24:55;9.40;;;4.80;;
69463;SDS011;56665;41.106;16.688;2023-11-22T08:28:00;9.07;;;4.40;;
69463;SDS011;56665;41.106;16.688;2023-11-22T08:31:04;6.63;;;4.00;;
69463;SDS011;56665;41.106;16.688;2023-11-22T08:34:07;7.35;;;3.75;;
69463;SDS011;56665;41.106;16.688;2023-11-22T08:37:12;6.45;;;3.75;;
69463;SDS011;56665;41.106;16.688;2023-11-22T08:40:15;7.57;;;3.83;;
69463;SDS011;56665;41.106;16.688;2023-11-22T08:43:23;6.57;;;3.80;;
69463;SDS011;56665;41.106;16.688;2023-11-22T08:46:29;6.10;;;3.70;;
69463;SDS011;56665;41.106;16.688;2023-11-22T08:49:33;6.20;;;3.50;;
69463;SDS011;56665;41.106;16.688;2023-11-22T08:52:38;6.45;;;3.30;;
69463;SDS011;56665;41.106;16.688;2023-11-22T08:55:42;5.68;;;3.30;;
69463;SDS011;56665;41.106;16.688;2023-11-22T08:58:46;4.85;;;3.20;;
69463;SDS011;56665;41.106;16.688;2023-11-22T09:01:50;4.63;;;2.87;;
69463;SDS011;56665;41.106;16.688;2023-11-22T09:04:53;8.13;;;2.92;;
69463;SDS011;56665;41.106;16.688;2023-11-22T09:07:57;5.30;;;2.80;;
69463;SDS011;56665;41.106;16.688;2023-11-22T09:11:02;5.53;;;2.63;;
69463;SDS011;56665;41.106;16.688;2023-11-22T09:14:09;7.97;;;2.65;;
69463;SDS011;56665;41.106;16.688;2023-11-22T09:17:13;5.43;;;2.50;;
69463;SDS011;56665;41.106;16.688;2023-11-22T09:20:17;4.45;;;2.28;;
69463;SDS011;56665;41.106;16.688;2023-11-22T09:23:23;4.45;;;2.40;;
69463;SDS011;56665;41.106;16.688;2023-11-22T09:26:29;5.18;;;1.92;;
69463;SDS011;56665;41.106;16.688;2023-11-22T09:29:33;5.60;;;2.40;;
69463;SDS011;56665;41.106;16.688;2023-11-22T09:32:37;4.60;;;2.50;;
69463;SDS011;56665;41.106;16.688;2023-11-22T09:35:42;5.32;;;2.10;;
69463;SDS011;56665;41.106;16.688;2023-11-22T09:38:47;5.35;;;2.20;;
69463;SDS011;56665;41.106;16.688;2023-11-22T09:41:51;4.70;;;2.33;;
69463;SDS011;56665;41.106;16.688;2023-11-22T09:44:56;7.95;;;2.70;;
69463;SDS011;56665;41.106;16.688;2023-11-22T09:48:00;8.47;;;3.40;;
69463;SDS011;56665;41.106;16.688;2023-11-22T09:51:15;5.50;;;3.20;;
69463;SDS011;56665;41.106;16.688;2023-11-22T09:54:30;5.90;;;3.03;;
69463;SDS011;56665;41.106;16.688;2023-11-22T09:57:36;5.72;;;2.92;;
69463;SDS011;56665;41.106;16.688;2023-11-22T10:00:42;5.60;;;2.60;;
69463;SDS011;56665;41.106;16.688;2023-11-22T10:03:46;6.13;;;2.37;;
69463;SDS011;56665;41.106;16.688;2023-11-22T10:06:51;4.45;;;2.20;;
69463;SDS011;56665;41.106;16.688;2023-11-22T10:09:55;4.38;;;1.98;;
69463;SDS011;56665;41.106;16.688;2023-11-22T10:13:00;4.40;;;1.95;;
69463;SDS011;56665;41.106;16.688;2023-11-22T10:16:08;3.05;;;1.60;;
69463;SDS011;56665;41.106;16.688;2023-11-22T10:19:13;3.60;;;1.50;;
69463;SDS011;56665;41.106;16.688;2023-11-22T10:22:17;3.40;;;1.80;;
69463;SDS011;56665;41.106;16.688;2023-11-22T10:25:21;3.53;;;1.73;;
69463;SDS011;56665;41.106;16.688;2023-11-22T10:28:26;8.43;;;3.50;;
69463;SDS011;56665;41.106;16.688;2023-11-22T10:31:33;8.15;;;4.45;;
69463;SDS011;56665;41.106;16.688;2023-11-22T10:34:38;8.27;;;4.07;;
69463;SDS011;56665;41.106;16.688;2023-11-22T10:37:42;7.35;;;3.17;;
69463;SDS011;56665;41.106;16.688;2023-11-22T10:40:47;7.10;;;2.50;;
69463;SDS011;56665;41.106;16.688;2023-11-22T10:43:54;6.60;;;2.30;;
69463;SDS011;56665;41.106;16.688;2023-11-22T10:46:59;6.20;;;2.50;;
69463;SDS011;56665;41.106;16.688;2023-11-22T10:50:05;4.97;;;2.20;;
69463;SDS011;56665;41.106;16.688;2023-11-22T10:53:12;6.43;;;3.30;;
69463;SDS011;56665;41.106;16.688;2023-11-22T10:56:17;6.10;;;2.70;;
69463;SDS011;56665;41.106;16.688;2023-11-22T10:59:22;4.85;;;2.00;;
69463;SDS011;56665;41.106;16.688;2023-11-22T11:02:31;3.83;;;1.90;;
69463;SDS011;56665;41.106;16.688;2023-11-22T11:05:52;6.13;;;1.90;;
69463;SDS011;56665;41.106;16.688;2023-11-22T11:09:01;5.43;;;2.08;;
69463;SDS011;56665;41.106;16.688;2023-11-22T11:12:09;4.93;;;1.75;;
69463;SDS011;56665;41.106;16.688;2023-11-22T11:15:14;4.07;;;1.65;;
69463;SDS011;56665;41.106;16.688;2023-11-22T11:18:19;5.38;;;1.60;;
69463;SDS011;56665;41.106;16.688;2023-11-22T11:21:24;3.37;;;1.40;;
69463;SDS011;56665;41.106;16.688;2023-11-22T11:24:28;4.25;;;1.52;;
69463;SDS011;56665;41.106;16.688;2023-11-22T11:27:33;3.95;;;1.60;;
69463;SDS011;56665;41.106;16.688;2023-11-22T11:36:52;6.20;;;2.10;;
69463;SDS011;56665;41.106;16.688;2023-11-22T11:39:59;4.05;;;1.73;;
69463;SDS011;56665;41.106;16.688;2023-11-22T11:43:04;5.30;;;1.90;;
69463;SDS011;56665;41.106;16.688;2023-11-22T11:46:08;4.30;;;1.85;;
69463;SDS011;56665;41.106;16.688;2023-11-22T11:49:13;5.05;;;2.10;;
69463;SDS011;56665;41.106;16.688;2023-11-22T11:52:18;5.40;;;2.07;;
69463;SDS011;56665;41.106;16.688;2023-11-22T11:55:21;5.28;;;2.40;;
69463;SDS011;56665;41.106;16.688;2023-11-22T11:58:25;3.95;;;2.20;;
69463;SDS011;56665;41.106;16.688;2023-11-22T12:01:29;3.58;;;1.63;;
69463;SDS011;56665;41.106;16.688;2023-11-22T12:04:33;3.70;;;1.48;;
69463;SDS011;56665;41.106;16.688;2023-11-22T12:07:37;5.43;;;2.20;;
69463;SDS011;56665;41.106;16.688;2023-11-22T12:10:42;6.22;;;2.70;;
69463;SDS011;56665;41.106;16.688;2023-11-22T12:13:46;4.38;;;2.05;;
69463;SDS011;56665;41.106;16.688;2023-11-22T12:16:52;3.75;;;2.10;;
69463;SDS011;56665;41.106;16.688;2023-11-22T12:20:10;5.25;;;2.20;;
69463;SDS011;56665;41.106;16.688;2023-11-22T12:23:14;4.53;;;2.10;;
69463;SDS011;56665;41.106;16.688;2023-11-22T12:26:19;4.10;;;2.00;;
69463;SDS011;56665;41.106;16.688;2023-11-22T12:29:23;5.78;;;1.90;;
69463;SDS011;56665;41.106;16.688;2023-11-22T12:32:28;6.45;;;2.45;;
69463;SDS011;56665;41.106;16.688;2023-11-22T12:35:33;5.45;;;2.45;;
69463;SDS011;56665;41.106;16.688;2023-11-22T12:38:42;6.37;;;2.83;;
69463;SDS011;56665;41.106;16.688;2023-11-22T12:41:50;6.10;;;2.30;;
69463;SDS011;56665;41.106;16.688;2023-11-22T12:44:55;6.18;;;2.63;;
69463;SDS011;56665;41.106;16.688;2023-11-22T12:47:59;4.55;;;2.17;;
69463;SDS011;56665;41.106;16.688;2023-11-22T12:51:14;5.40;;;2.00;;
69463;SDS011;56665;41.106;16.688;2023-11-22T12:54:18;5.33;;;2.30;;
69463;SDS011;56665;41.106;16.688;2023-11-22T12:57:24;4.78;;;1.90;;
69463;SDS011;56665;41.106;16.688;2023-11-22T13:00:29;5.60;;;2.50;;
69463;SDS011;56665;41.106;16.688;2023-11-22T13:03:33;6.68;;;2.90;;
69463;SDS011;56665;41.106;16.688;2023-11-22T13:06:36;8.27;;;3.13;;
69463;SDS011;56665;41.106;16.688;2023-11-22T13:09:41;8.13;;;2.83;;
69463;SDS011;56665;41.106;16.688;2023-11-22T13:12:45;6.30;;;3.03;;
69463;SDS011;56665;41.106;16.688;2023-11-22T13:15:49;5.90;;;3.20;;
69463;SDS011;56665;41.106;16.688;2023-11-22T13:18:52;8.43;;;2.88;;
69463;SDS011;56665;41.106;16.688;2023-11-22T13:21:56;7.15;;;2.50;;
69463;SDS011;56665;41.106;16.688;2023-11-22T13:25:00;5.13;;;2.20;;
69463;SDS011;56665;41.106;16.688;2023-11-22T13:28:05;4.63;;;2.70;;
69463;SDS011;56665;41.106;16.688;2023-11-22T13:31:09;3.83;;;2.03;;
69463;SDS011;56665;41.106;16.688;2023-11-22T13:34:15;4.88;;;2.13;;
69463;SDS011;56665;41.106;16.688;2023-11-22T13:37:22;4.13;;;1.88;;
69463;SDS011;56665;41.106;16.688;2023-11-22T13:40:26;4.67;;;1.83;;
69463;SDS011;56665;41.106;16.688;2023-11-22T13:43:33;4.38;;;1.70;;
69463;SDS011;56665;41.106;16.688;2023-11-22T13:46:38;3.67;;;2.10;;
69463;SDS011;56665;41.106;16.688;2023-11-22T13:49:42;5.60;;;2.00;;
69463;SDS011;56665;41.106;16.688;2023-11-22T13:52:46;5.55;;;2.00;;
69463;SDS011;56665;41.106;16.688;2023-11-22T13:55:50;6.17;;;2.20;;
69463;SDS011;56665;41.106;16.688;2023-11-22T13:58:55;4.32;;;2.20;;
69463;SDS011;56665;41.106;16.688;2023-11-22T14:01:59;5.32;;;2.60;;
69463;SDS011;56665;41.106;16.688;2023-11-22T14:05:02;4.25;;;2.30;;
69463;SDS011;56665;41.106;16.688;2023-11-22T14:08:10;8.52;;;3.17;;
69463;SDS011;56665;41.106;16.688;2023-11-22T14:11:14;6.43;;;2.73;;
69463;SDS011;56665;41.106;16.688;2023-11-22T14:14:18;7.18;;;3.03;;
69463;SDS011;56665;41.106;16.688;2023-11-22T14:17:22;6.40;;;2.55;;
69463;SDS011;56665;41.106;16.688;2023-11-22T14:20:27;5.10;;;2.00;;
69463;SDS011;56665;41.106;16.688;2023-11-22T14:23:33;4.70;;;1.52;;
69463;SDS011;56665;41.106;16.688;2023-11-22T14:26:36;4.00;;;1.30;;
69463;SDS011;56665;41.106;16.688;2023-11-22T14:29:40;3.05;;;1.60;;
69463;SDS011;56665;41.106;16.688;2023-11-22T14:32:45;4.47;;;1.85;;
69463;SDS011;56665;41.106;16.688;2023-11-22T14:35:49;5.72;;;1.85;;
69463;SDS011;56665;41.106;16.688;2023-11-22T14:38:53;6.97;;;2.50;;
69463;SDS011;56665;41.106;16.688;2023-11-22T14:41:59;6.90;;;2.70;;
69463;SDS011;56665;41.106;16.688;2023-11-22T14:45:03;7.97;;;3.15;;
69463;SDS011;56665;41.106;16.688;2023-11-22T14:48:08;6.72;;;2.63;;
69463;SDS011;56665;41.106;16.688;2023-11-22T14:51:13;7.50;;;2.40;;
69463;SDS011;56665;41.106;16.688;2023-11-22T14:54:16;5.80;;;2.10;;
69463;SDS011;56665;41.106;16.688;2023-11-22T14:57:20;5.77;;;2.50;;
69463;SDS011;56665;41.106;16.688;2023-11-22T15:00:24;4.97;;;2.08;;
69463;SDS011;56665;41.106;16.688;2023-11-22T15:03:28;5.88;;;3.00;;
69463;SDS011;56665;41.106;16.688;2023-11-22T15:06:33;4.80;;;2.10;;
69463;SDS011;56665;41.106;16.688;2023-11-22T15:09:38;6.45;;;2.83;;
69463;SDS011;56665;41.106;16.688;2023-11-22T15:12:42;6.90;;;2.27;;
69463;SDS011;56665;41.106;16.688;2023-11-22T15:15:46;7.55;;;2.58;;
69463;SDS011;56665;41.106;16.688;2023-11-22T15:18:50;7.20;;;2.67;;
69463;SDS011;56665;41.106;16.688;2023-11-22T15:21:54;8.30;;;3.28;;
69463;SDS011;56665;41.106;16.688;2023-11-22T15:24:57;10.90;;;3.55;;
69463;SDS011;56665;41.106;16.688;2023-11-22T15:28:01;9.23;;;3.20;;
69463;SDS011;56665;41.106;16.688;2023-11-22T15:31:05;9.50;;;3.67;;
69463;SDS011;56665;41.106;16.688;2023-11-22T15:34:09;9.50;;;3.80;;
69463;SDS011;56665;41.106;16.688;2023-11-22T15:37:14;9.32;;;4.00;;
69463;SDS011;56665;41.106;16.688;2023-11-22T15:40:19;7.57;;;3.72;;
69463;SDS011;56665;41.106;16.688;2023-11-22T15:43:23;8.17;;;3.30;;
69463;SDS011;56665;41.106;16.688;2023-11-22T15:46:27;8.00;;;3.80;;
69463;SDS011;56665;41.106;16.688;2023-11-22T15:49:32;5.82;;;3.25;;
69463;SDS011;56665;41.106;16.688;2023-11-22T15:52:36;7.15;;;3.53;;
69463;SDS011;56665;41.106;16.688;2023-11-22T15:55:40;7.55;;;3.85;;
69463;SDS011;56665;41.106;16.688;2023-11-22T15:58:46;8.73;;;4.10;;
69463;SDS011;56665;41.106;16.688;2023-11-22T16:01:50;7.45;;;4.45;;
69463;SDS011;56665;41.106;16.688;2023-11-22T16:04:54;9.50;;;5.20;;
69463;SDS011;56665;41.106;16.688;2023-11-22T16:07:58;9.35;;;5.10;;
69463;SDS011;56665;41.106;16.688;2023-11-22T16:11:02;9.18;;;4.38;;
69463;SDS011;56665;41.106;16.688;2023-11-22T16:14:05;8.73;;;4.30;;
69463;SDS011;56665;41.106;16.688;2023-11-22T16:17:09;7.95;;;3.63;;
69463;SDS011;56665;41.106;16.688;2023-11-22T16:20:14;6.75;;;3.17;;
69463;SDS011;56665;41.106;16.688;2023-11-22T16:23:19;5.32;;;2.92;;
69463;SDS011;56665;41.106;16.688;2023-11-22T16:26:22;5.38;;;2.83;;
69463;SDS011;56665;41.106;16.688;2023-11-22T16:29:27;8.20;;;3.33;;
69463;SDS011;56665;41.106;16.688;2023-11-22T16:32:30;7.88;;;3.55;;
69463;SDS011;56665;41.106;16.688;2023-11-22T16:35:34;8.77;;;4.82;;
69463;SDS011;56665;41.106;16.688;2023-11-22T16:38:38;8.65;;;3.90;;
69463;SDS011;56665;41.106;16.688;2023-11-22T16:41:42;8.88;;;5.07;;
69463;SDS011;56665;41.106;16.688;2023-11-22T16:44:46;10.33;;;4.27;;
69463;SDS011;56665;41.106;16.688;2023-11-22T16:47:50;10.52;;;4.90;;
69463;SDS011;56665;41.106;16.688;2023-11-22T16:50:55;8.25;;;4.90;;
69463;SDS011;56665;41.106;16.688;2023-11-22T16:53:59;9.38;;;5.43;;
69463;SDS011;56665;41.106;16.688;2023-11-22T16:57:02;13.30;;;5.45;;
69463;SDS011;56665;41.106;16.688;2023-11-22T17:00:06;11.43;;;6.00;;
69463;SDS011;56665;41.106;16.688;2023-11-22T17:03:12;12.30;;;6.22;;
69463;SDS011;56665;41.106;16.688;2023-11-22T17:06:16;14.27;;;5.90;;
69463;SDS011;56665;41.106;16.688;2023-11-22T17:09:20;11.60;;;5.25;;
69463;SDS011;56665;41.106;16.688;2023-11-22T17:12:24;11.30;;;3.83;;
69463;SDS011;56665;41.106;16.688;2023-11-22T17:15:28;8.50;;;3.57;;
69463;SDS011;56665;41.106;16.688;2023-11-22T17:18:31;7.43;;;3.50;;
69463;SDS011;56665;41.106;16.688;2023-11-22T17:21:35;9.80;;;3.88;;
69463;SDS011;56665;41.106;16.688;2023-11-22T17:24:39;8.40;;;3.25;;
69463;SDS011;56665;41.106;16.688;2023-11-22T17:27:45;7.85;;;3.40;;
69463;SDS011;56665;41.106;16.688;2023-11-22T17:30:49;9.43;;;3.53;;
69463;SDS011;56665;41.106;16.688;2023-11-22T17:33:53;12.45;;;4.28;;
69463;SDS011;56665;41.106;16.688;2023-11-22T17:36:56;8.25;;;3.88;;
69463;SDS011;56665;41.106;16.688;2023-11-22T17:40:01;7.10;;;2.45;;
69463;SDS011;56665;41.106;16.688;2023-11-22T17:43:06;9.90;;;2.83;;
69463;SDS011;56665;41.106;16.688;2023-11-22T17:46:10;10.50;;;2.83;;
69463;SDS011;56665;41.106;16.688;2023-11-22T17:49:14;6.75;;;2.75;;
69463;SDS011;56665;41.106;16.688;2023-11-22T17:52:18;6.22;;;2.25;;
69463;SDS011;56665;41.106;16.688;2023-11-22T17:55:21;7.53;;;2.30;;
69463;SDS011;56665;41.106;16.688;2023-11-22T17:58:25;6.43;;;2.55;;
69463;SDS011;56665;41.106;16.688;2023-11-22T18:01:30;6.67;;;2.13;;
69463;SDS011;56665;41.106;16.688;2023-11-22T18:04:34;5.45;;;2.10;;
69463;SDS011;56665;41.106;16.688;2023-11-22T18:07:38;10.95;;;2.65;;
69463;SDS011;56665;41.106;16.688;2023-11-22T18:10:42;7.50;;;2.42;;
69463;SDS011;56665;41.106;16.688;2023-11-22T18:13:46;7.10;;;2.28;;
69463;SDS011;56665;41.106;16.688;2023-11-22T18:16:50;8.77;;;2.40;;